OAL929 HCMM-FSIA
Flight info
| Callsign | OAL929 |
|---|---|
| Flight time | 1h 49m |
| Altitude | 37000 |
| Route | EGLOM UM313 MOGUD T119 FS123 T120 NEVIN |
| Aircraft | B738/M-V/N |
Departure
| Time | 2026-05-06 15:43 |
|---|---|
| Airport | Aden Adde International Airport (HCMM) |
Arrival
| Time | 2026-05-06 17:32 |
|---|---|
| Airport | Seychelles International Airport (FSIA) |
| Time | Latitude | Longitude | Altitude | Speed | Heading |
|---|---|---|---|---|---|
| 2026-05-06 15:35 | 2.02275 | 45.31463 | 34 ft | 0 kts | 230° |
| 2026-05-06 15:42 | 2.02242 | 45.31424 | 33 ft | 36 kts | 230° |
| 2026-05-06 15:42 | 2.01894 | 45.31003 | 33 ft | 119 kts | 230° |
| 2026-05-06 15:42 | 2.01230 | 45.30200 | 262 ft | 163 kts | 230° |
| 2026-05-06 15:43 | 2.00543 | 45.29356 | 1407 ft | 158 kts | 230° |
| 2026-05-06 15:43 | 1.99646 | 45.28638 | 2040 ft | 185 kts | 201° |
| 2026-05-06 15:43 | 1.98256 | 45.28527 | 2271 ft | 220 kts | 172° |
| 2026-05-06 15:43 | 1.96819 | 45.29271 | 2477 ft | 253 kts | 140° |
| 2026-05-06 15:44 | 1.95748 | 45.30768 | 2940 ft | 274 kts | 123° |
| 2026-05-06 15:44 | 1.95117 | 45.31895 | 3448 ft | 276 kts | 122° |
| 2026-05-06 15:44 | 1.94176 | 45.33576 | 4303 ft | 278 kts | 122° |
| 2026-05-06 15:44 | 1.93226 | 45.35271 | 5094 ft | 282 kts | 121° |
| 2026-05-06 15:45 | 1.92259 | 45.36988 | 5877 ft | 284 kts | 121° |
| 2026-05-06 15:45 | 1.91289 | 45.38701 | 6711 ft | 283 kts | 120° |
| 2026-05-06 15:45 | 1.90309 | 45.40422 | 7441 ft | 287 kts | 119° |
| 2026-05-06 15:45 | 1.89311 | 45.42169 | 8140 ft | 291 kts | 119° |
| 2026-05-06 15:46 | 1.88298 | 45.43937 | 8880 ft | 294 kts | 118° |
| 2026-05-06 15:46 | 1.87275 | 45.45718 | 9646 ft | 297 kts | 118° |
| 2026-05-06 15:46 | 1.86240 | 45.47519 | 10259 ft | 304 kts | 118° |
| 2026-05-06 15:46 | 1.85143 | 45.49428 | 10416 ft | 328 kts | 118° |
| 2026-05-06 15:47 | 1.83973 | 45.51466 | 10587 ft | 349 kts | 118° |
| 2026-05-06 15:47 | 1.82730 | 45.53625 | 10722 ft | 368 kts | 118° |
| 2026-05-06 15:47 | 1.81431 | 45.55879 | 11083 ft | 377 kts | 118° |
| 2026-05-06 15:47 | 1.80117 | 45.58155 | 11694 ft | 378 kts | 118° |
| 2026-05-06 15:48 | 1.78798 | 45.60436 | 12340 ft | 379 kts | 118° |
| 2026-05-06 15:48 | 1.77474 | 45.62726 | 12885 ft | 383 kts | 118° |
| 2026-05-06 15:48 | 1.76137 | 45.65040 | 13429 ft | 386 kts | 119° |
| 2026-05-06 15:48 | 1.74792 | 45.67368 | 13958 ft | 388 kts | 119° |
| 2026-05-06 15:49 | 1.73436 | 45.69717 | 14430 ft | 391 kts | 119° |
| 2026-05-06 15:49 | 1.72072 | 45.72080 | 14870 ft | 395 kts | 119° |
| 2026-05-06 15:49 | 1.70695 | 45.74467 | 15309 ft | 398 kts | 119° |
| 2026-05-06 15:49 | 1.69308 | 45.76870 | 15744 ft | 401 kts | 120° |
| 2026-05-06 15:50 | 1.67905 | 45.79299 | 16185 ft | 404 kts | 120° |
| 2026-05-06 15:50 | 1.66496 | 45.81742 | 16627 ft | 407 kts | 120° |
| 2026-05-06 15:50 | 1.65075 | 45.84202 | 17043 ft | 411 kts | 120° |
| 2026-05-06 15:50 | 1.63644 | 45.86681 | 17459 ft | 414 kts | 120° |
| 2026-05-06 15:51 | 1.62200 | 45.89182 | 17861 ft | 417 kts | 120° |
| 2026-05-06 15:51 | 1.60748 | 45.91697 | 18252 ft | 419 kts | 120° |
| 2026-05-06 15:51 | 1.59284 | 45.94235 | 18597 ft | 422 kts | 120° |
| 2026-05-06 15:51 | 1.57815 | 45.96779 | 18964 ft | 424 kts | 120° |
| 2026-05-06 15:52 | 1.56340 | 45.99334 | 19321 ft | 426 kts | 120° |
| 2026-05-06 15:52 | 1.54858 | 46.01901 | 19665 ft | 428 kts | 120° |
| 2026-05-06 15:52 | 1.53367 | 46.04484 | 19997 ft | 430 kts | 120° |
| 2026-05-06 15:52 | 1.51865 | 46.07085 | 20326 ft | 432 kts | 120° |
| 2026-05-06 15:53 | 1.50359 | 46.09694 | 20662 ft | 434 kts | 120° |
| 2026-05-06 15:53 | 1.48846 | 46.12314 | 20985 ft | 436 kts | 120° |
| 2026-05-06 15:53 | 1.47325 | 46.14948 | 21299 ft | 438 kts | 120° |
| 2026-05-06 15:53 | 1.45798 | 46.17592 | 21604 ft | 441 kts | 120° |
| 2026-05-06 15:54 | 1.44264 | 46.20249 | 21904 ft | 443 kts | 120° |
| 2026-05-06 15:54 | 1.42720 | 46.22923 | 22199 ft | 445 kts | 120° |
| 2026-05-06 15:54 | 1.41171 | 46.25606 | 22490 ft | 446 kts | 120° |
| 2026-05-06 15:54 | 1.39617 | 46.28296 | 22779 ft | 448 kts | 120° |
| 2026-05-06 15:55 | 1.38054 | 46.31002 | 23048 ft | 451 kts | 120° |
| 2026-05-06 15:55 | 1.36481 | 46.33726 | 23306 ft | 452 kts | 120° |
| 2026-05-06 15:55 | 1.34907 | 46.36451 | 23562 ft | 454 kts | 120° |
| 2026-05-06 15:55 | 1.33328 | 46.39185 | 23788 ft | 455 kts | 120° |
| 2026-05-06 15:56 | 1.31741 | 46.41933 | 24030 ft | 456 kts | 120° |
| 2026-05-06 15:56 | 1.30150 | 46.44688 | 24265 ft | 457 kts | 120° |
| 2026-05-06 15:56 | 1.28562 | 46.47436 | 24491 ft | 458 kts | 120° |
| 2026-05-06 15:56 | 1.26990 | 46.50158 | 24703 ft | 459 kts | 120° |
| 2026-05-06 15:57 | 1.25391 | 46.52927 | 24910 ft | 460 kts | 120° |
| 2026-05-06 15:57 | 1.23768 | 46.55735 | 25123 ft | 461 kts | 120° |
| 2026-05-06 15:57 | 1.22163 | 46.58515 | 25347 ft | 462 kts | 120° |
| 2026-05-06 15:57 | 1.20568 | 46.61276 | 25555 ft | 463 kts | 120° |
| 2026-05-06 15:58 | 1.18957 | 46.64063 | 25745 ft | 464 kts | 120° |
| 2026-05-06 15:58 | 1.17339 | 46.66865 | 25944 ft | 465 kts | 120° |
| 2026-05-06 15:58 | 1.15722 | 46.69662 | 26146 ft | 466 kts | 120° |
| 2026-05-06 15:58 | 1.14104 | 46.72464 | 26342 ft | 467 kts | 120° |
| 2026-05-06 15:59 | 1.12455 | 46.75317 | 26540 ft | 468 kts | 120° |
| 2026-05-06 15:59 | 1.10832 | 46.78125 | 26705 ft | 469 kts | 120° |
| 2026-05-06 15:59 | 1.09203 | 46.80945 | 26896 ft | 470 kts | 120° |
| 2026-05-06 15:59 | 1.07575 | 46.83763 | 27071 ft | 471 kts | 120° |
| 2026-05-06 16:00 | 1.05920 | 46.86627 | 27252 ft | 472 kts | 120° |
| 2026-05-06 16:00 | 1.04286 | 46.89455 | 27410 ft | 473 kts | 120° |
| 2026-05-06 16:00 | 1.02633 | 46.92316 | 27570 ft | 474 kts | 120° |
| 2026-05-06 16:00 | 1.00990 | 46.95158 | 27738 ft | 475 kts | 120° |
| 2026-05-06 16:01 | 0.99340 | 46.98013 | 27910 ft | 475 kts | 120° |
| 2026-05-06 16:01 | 0.97691 | 47.00868 | 28063 ft | 476 kts | 120° |
| 2026-05-06 16:01 | 0.96036 | 47.03731 | 28200 ft | 478 kts | 120° |
| 2026-05-06 16:01 | 0.94377 | 47.06601 | 28371 ft | 478 kts | 120° |
| 2026-05-06 16:02 | 0.92716 | 47.09475 | 28620 ft | 476 kts | 120° |
| 2026-05-06 16:02 | 0.91061 | 47.12338 | 28909 ft | 474 kts | 120° |
| 2026-05-06 16:02 | 0.89409 | 47.15197 | 29152 ft | 473 kts | 120° |
| 2026-05-06 16:02 | 0.87768 | 47.18037 | 29330 ft | 474 kts | 120° |
| 2026-05-06 16:03 | 0.86124 | 47.20881 | 29527 ft | 474 kts | 120° |
| 2026-05-06 16:03 | 0.84455 | 47.23768 | 29801 ft | 472 kts | 120° |
| 2026-05-06 16:03 | 0.82817 | 47.26603 | 30043 ft | 471 kts | 120° |
| 2026-05-06 16:03 | 0.81181 | 47.29433 | 30216 ft | 472 kts | 120° |
| 2026-05-06 16:04 | 0.79549 | 47.32257 | 30379 ft | 472 kts | 120° |
| 2026-05-06 16:04 | 0.77908 | 47.35098 | 30578 ft | 471 kts | 120° |
| 2026-05-06 16:04 | 0.76273 | 47.37927 | 30814 ft | 470 kts | 120° |
| 2026-05-06 16:04 | 0.74639 | 47.40750 | 31054 ft | 469 kts | 120° |
| 2026-05-06 16:05 | 0.72971 | 47.43553 | 31254 ft | 469 kts | 121° |
| 2026-05-06 16:05 | 0.71277 | 47.46328 | 31445 ft | 469 kts | 121° |
| 2026-05-06 16:05 | 0.69548 | 47.49130 | 31668 ft | 468 kts | 121° |
| 2026-05-06 16:05 | 0.67842 | 47.51894 | 31911 ft | 467 kts | 121° |
| 2026-05-06 16:06 | 0.66153 | 47.54638 | 32165 ft | 466 kts | 121° |
| 2026-05-06 16:06 | 0.64469 | 47.57382 | 32385 ft | 465 kts | 121° |
| 2026-05-06 16:06 | 0.62761 | 47.60171 | 32589 ft | 466 kts | 121° |
| 2026-05-06 16:06 | 0.61070 | 47.62939 | 32818 ft | 465 kts | 121° |
| 2026-05-06 16:07 | 0.59397 | 47.65679 | 33087 ft | 463 kts | 121° |
| 2026-05-06 16:07 | 0.57731 | 47.68406 | 33358 ft | 462 kts | 121° |
| 2026-05-06 16:07 | 0.56042 | 47.71174 | 33586 ft | 462 kts | 121° |
| 2026-05-06 16:07 | 0.54372 | 47.73909 | 33783 ft | 462 kts | 121° |
| 2026-05-06 16:08 | 0.52712 | 47.76626 | 33999 ft | 461 kts | 121° |
| 2026-05-06 16:08 | 0.51025 | 47.79389 | 34245 ft | 460 kts | 121° |
| 2026-05-06 16:08 | 0.49360 | 47.82115 | 34466 ft | 459 kts | 121° |
| 2026-05-06 16:08 | 0.47708 | 47.84819 | 34630 ft | 459 kts | 121° |
| 2026-05-06 16:09 | 0.46042 | 47.87547 | 34778 ft | 460 kts | 121° |
| 2026-05-06 16:09 | 0.44381 | 47.90266 | 34978 ft | 459 kts | 121° |
| 2026-05-06 16:09 | 0.42709 | 47.93003 | 35221 ft | 457 kts | 121° |
| 2026-05-06 16:09 | 0.41064 | 47.95697 | 35441 ft | 456 kts | 121° |
| 2026-05-06 16:10 | 0.39391 | 47.98435 | 35593 ft | 457 kts | 121° |
| 2026-05-06 16:10 | 0.37736 | 48.01145 | 35727 ft | 458 kts | 121° |
| 2026-05-06 16:10 | 0.36095 | 48.03832 | 35922 ft | 457 kts | 121° |
| 2026-05-06 16:10 | 0.34434 | 48.06550 | 36158 ft | 455 kts | 121° |
| 2026-05-06 16:11 | 0.32794 | 48.09235 | 36356 ft | 454 kts | 121° |
| 2026-05-06 16:11 | 0.31146 | 48.11934 | 36496 ft | 455 kts | 121° |
| 2026-05-06 16:11 | 0.29492 | 48.14642 | 36644 ft | 455 kts | 121° |
| 2026-05-06 16:11 | 0.27849 | 48.17332 | 36838 ft | 454 kts | 121° |
| 2026-05-06 16:12 | 0.24552 | 48.22729 | 36860 ft | 457 kts | 121° |
| 2026-05-06 16:12 | 0.21240 | 48.28154 | 36861 ft | 455 kts | 121° |
| 2026-05-06 16:13 | 0.17952 | 48.33535 | 36861 ft | 453 kts | 121° |
| 2026-05-06 16:13 | 0.14661 | 48.38919 | 36869 ft | 452 kts | 121° |
| 2026-05-06 16:14 | 0.11394 | 48.44264 | 36890 ft | 451 kts | 121° |
| 2026-05-06 16:14 | 0.08135 | 48.49597 | 36895 ft | 450 kts | 121° |
| 2026-05-06 16:15 | 0.04857 | 48.54963 | 36881 ft | 451 kts | 121° |
| 2026-05-06 16:15 | 0.01596 | 48.60302 | 36871 ft | 452 kts | 121° |
| 2026-05-06 16:16 | -0.01671 | 48.65650 | 36875 ft | 453 kts | 121° |
| 2026-05-06 16:16 | -0.04959 | 48.71031 | 36892 ft | 453 kts | 121° |
| 2026-05-06 16:17 | -0.08258 | 48.76431 | 36889 ft | 454 kts | 121° |
| 2026-05-06 16:17 | -0.11556 | 48.81830 | 36874 ft | 456 kts | 121° |
| 2026-05-06 16:18 | -0.14847 | 48.87217 | 36881 ft | 457 kts | 121° |
| 2026-05-06 16:18 | -0.18165 | 48.92648 | 36898 ft | 456 kts | 121° |
| 2026-05-06 16:19 | -0.21464 | 48.98048 | 36889 ft | 457 kts | 121° |
| 2026-05-06 16:19 | -0.24778 | 49.03473 | 36872 ft | 457 kts | 121° |
| 2026-05-06 16:20 | -0.28085 | 49.08886 | 36886 ft | 455 kts | 121° |
| 2026-05-06 16:20 | -0.31388 | 49.14293 | 36891 ft | 454 kts | 121° |
| 2026-05-06 16:21 | -0.34665 | 49.19659 | 36870 ft | 454 kts | 121° |
| 2026-05-06 16:21 | -0.37418 | 49.24165 | 36886 ft | 453 kts | 121° |
| 2026-05-06 16:22 | -0.41231 | 49.30406 | 36896 ft | 452 kts | 121° |
| 2026-05-06 16:22 | -0.43961 | 49.34876 | 36873 ft | 452 kts | 121° |
| 2026-05-06 16:23 | -0.47229 | 49.40226 | 36883 ft | 451 kts | 121° |
| 2026-05-06 16:23 | -0.50504 | 49.45587 | 36895 ft | 450 kts | 121° |
| 2026-05-06 16:24 | -0.53767 | 49.50930 | 36875 ft | 451 kts | 121° |
| 2026-05-06 16:24 | -0.57029 | 49.56271 | 36879 ft | 451 kts | 121° |
| 2026-05-06 16:25 | -0.60310 | 49.61643 | 36897 ft | 451 kts | 121° |
| 2026-05-06 16:25 | -0.63569 | 49.66980 | 36885 ft | 451 kts | 121° |
| 2026-05-06 16:26 | -0.66835 | 49.72327 | 36877 ft | 452 kts | 121° |
| 2026-05-06 16:26 | -0.70110 | 49.77690 | 36897 ft | 452 kts | 121° |
| 2026-05-06 16:27 | -0.73402 | 49.83080 | 36896 ft | 452 kts | 121° |
| 2026-05-06 16:27 | -0.76660 | 49.88415 | 36873 ft | 453 kts | 121° |
| 2026-05-06 16:28 | -0.79957 | 49.93814 | 36885 ft | 453 kts | 121° |
| 2026-05-06 16:28 | -0.83239 | 49.99189 | 36904 ft | 453 kts | 121° |
| 2026-05-06 16:29 | -0.86518 | 50.04559 | 36889 ft | 454 kts | 121° |
| 2026-05-06 16:29 | -0.89813 | 50.09955 | 36879 ft | 454 kts | 121° |
| 2026-05-06 16:30 | -0.92536 | 50.14417 | 36906 ft | 453 kts | 121° |
| 2026-05-06 16:30 | -0.96388 | 50.20726 | 36903 ft | 453 kts | 121° |
| 2026-05-06 16:31 | -0.99666 | 50.26095 | 36879 ft | 454 kts | 121° |
| 2026-05-06 16:31 | -1.02948 | 50.31470 | 36890 ft | 454 kts | 121° |
| 2026-05-06 16:32 | -1.06222 | 50.36835 | 36905 ft | 453 kts | 121° |
| 2026-05-06 16:32 | -1.09517 | 50.42232 | 36884 ft | 453 kts | 121° |
| 2026-05-06 16:33 | -1.12794 | 50.47601 | 36879 ft | 454 kts | 121° |
| 2026-05-06 16:34 | -1.17719 | 50.55671 | 36877 ft | 453 kts | 121° |
| 2026-05-06 16:34 | -1.21001 | 50.61049 | 36897 ft | 453 kts | 121° |
| 2026-05-06 16:35 | -1.24283 | 50.66427 | 36908 ft | 453 kts | 121° |
| 2026-05-06 16:35 | -1.27562 | 50.71800 | 36883 ft | 453 kts | 121° |
| 2026-05-06 16:36 | -1.30839 | 50.77172 | 36901 ft | 453 kts | 121° |
| 2026-05-06 16:36 | -1.34121 | 50.82551 | 36897 ft | 453 kts | 121° |
| 2026-05-06 16:37 | -1.37399 | 50.87925 | 36888 ft | 453 kts | 121° |
| 2026-05-06 16:37 | -1.40682 | 50.93308 | 36897 ft | 453 kts | 121° |
| 2026-05-06 16:38 | -1.43958 | 50.98679 | 36894 ft | 453 kts | 121° |
| 2026-05-06 16:38 | -1.47244 | 51.04064 | 36890 ft | 453 kts | 121° |
| 2026-05-06 16:39 | -1.50525 | 51.09440 | 36907 ft | 453 kts | 121° |
| 2026-05-06 16:39 | -1.53814 | 51.14829 | 36884 ft | 454 kts | 121° |
| 2026-05-06 16:40 | -1.57098 | 51.20215 | 36910 ft | 453 kts | 121° |
| 2026-05-06 16:40 | -1.60382 | 51.25600 | 36887 ft | 454 kts | 121° |
| 2026-05-06 16:41 | -1.63669 | 51.30990 | 36902 ft | 454 kts | 121° |
| 2026-05-06 16:41 | -1.66956 | 51.36381 | 36883 ft | 455 kts | 120° |
| 2026-05-06 16:42 | -1.70252 | 51.41786 | 36901 ft | 455 kts | 120° |
| 2026-05-06 16:42 | -1.73552 | 51.47200 | 36895 ft | 456 kts | 120° |
| 2026-05-06 16:43 | -1.76860 | 51.52626 | 36897 ft | 457 kts | 120° |
| 2026-05-06 16:43 | -1.80177 | 51.58067 | 36893 ft | 458 kts | 120° |
| 2026-05-06 16:44 | -1.83492 | 51.63507 | 36905 ft | 459 kts | 121° |
| 2026-05-06 16:44 | -1.86817 | 51.68962 | 36885 ft | 460 kts | 121° |
| 2026-05-06 16:45 | -1.90139 | 51.74414 | 36905 ft | 459 kts | 121° |
| 2026-05-06 16:45 | -1.93463 | 51.79868 | 36892 ft | 460 kts | 121° |
| 2026-05-06 16:46 | -1.96791 | 51.85330 | 36901 ft | 459 kts | 121° |
| 2026-05-06 16:46 | -2.00111 | 51.90779 | 36901 ft | 459 kts | 121° |
| 2026-05-06 16:47 | -2.03424 | 51.96219 | 36889 ft | 458 kts | 121° |
| 2026-05-06 16:47 | -2.06740 | 52.01663 | 36898 ft | 457 kts | 121° |
| 2026-05-06 16:48 | -2.10047 | 52.07092 | 36896 ft | 457 kts | 121° |
| 2026-05-06 16:48 | -2.13345 | 52.12507 | 36892 ft | 456 kts | 121° |
| 2026-05-06 16:49 | -2.16638 | 52.17916 | 36897 ft | 455 kts | 121° |
| 2026-05-06 16:49 | -2.19918 | 52.23304 | 36896 ft | 455 kts | 121° |
| 2026-05-06 16:50 | -2.23216 | 52.28720 | 36898 ft | 454 kts | 121° |
| 2026-05-06 16:50 | -2.26493 | 52.34103 | 36901 ft | 454 kts | 121° |
| 2026-05-06 16:51 | -2.29794 | 52.39527 | 36893 ft | 454 kts | 120° |
| 2026-05-06 16:51 | -2.33072 | 52.44913 | 36902 ft | 454 kts | 120° |
| 2026-05-06 16:52 | -2.36346 | 52.50293 | 36897 ft | 454 kts | 120° |
| 2026-05-06 16:52 | -2.39625 | 52.55682 | 36890 ft | 454 kts | 120° |
| 2026-05-06 16:53 | -2.42927 | 52.61110 | 36899 ft | 454 kts | 120° |
| 2026-05-06 16:53 | -2.46203 | 52.66496 | 36895 ft | 454 kts | 120° |
| 2026-05-06 16:54 | -2.49481 | 52.71886 | 36893 ft | 455 kts | 120° |
| 2026-05-06 16:54 | -2.52767 | 52.77291 | 36900 ft | 455 kts | 120° |
| 2026-05-06 16:55 | -2.56057 | 52.82701 | 36893 ft | 455 kts | 120° |
| 2026-05-06 16:55 | -2.59447 | 52.88083 | 36883 ft | 455 kts | 123° |
| 2026-05-06 16:56 | -2.63054 | 52.93288 | 36904 ft | 455 kts | 124° |
| 2026-05-06 16:56 | -2.66685 | 52.98462 | 36885 ft | 455 kts | 124° |
| 2026-05-06 16:57 | -2.70291 | 53.03650 | 36907 ft | 455 kts | 124° |
| 2026-05-06 16:57 | -2.73907 | 53.08888 | 36887 ft | 455 kts | 123° |
| 2026-05-06 16:58 | -2.77491 | 53.14092 | 36899 ft | 455 kts | 123° |
| 2026-05-06 16:58 | -2.81071 | 53.19290 | 36899 ft | 455 kts | 124° |
| 2026-05-06 16:59 | -2.84657 | 53.24496 | 36888 ft | 455 kts | 124° |
| 2026-05-06 16:59 | -2.88266 | 53.29737 | 36906 ft | 455 kts | 124° |
| 2026-05-06 17:00 | -2.91851 | 53.34941 | 36887 ft | 455 kts | 124° |
| 2026-05-06 17:00 | -2.94845 | 53.39290 | 36892 ft | 455 kts | 124° |
| 2026-05-06 17:01 | -2.99025 | 53.45361 | 36901 ft | 455 kts | 124° |
| 2026-05-06 17:01 | -3.02022 | 53.49713 | 36898 ft | 455 kts | 124° |
| 2026-05-06 17:02 | -3.05614 | 53.54932 | 36896 ft | 455 kts | 124° |
| 2026-05-06 17:02 | -3.09220 | 53.60171 | 36897 ft | 455 kts | 124° |
| 2026-05-06 17:03 | -3.12796 | 53.65368 | 36892 ft | 456 kts | 124° |
| 2026-05-06 17:03 | -3.16409 | 53.70619 | 36895 ft | 456 kts | 124° |
| 2026-05-06 17:04 | -3.19999 | 53.75837 | 36897 ft | 456 kts | 124° |
| 2026-05-06 17:04 | -3.23599 | 53.81071 | 36894 ft | 457 kts | 124° |
| 2026-05-06 17:05 | -3.27204 | 53.86312 | 36901 ft | 457 kts | 124° |
| 2026-05-06 17:05 | -3.30809 | 53.91554 | 36896 ft | 458 kts | 124° |
| 2026-05-06 17:06 | -3.34422 | 53.96809 | 36896 ft | 458 kts | 124° |
| 2026-05-06 17:06 | -3.38036 | 54.02066 | 36899 ft | 458 kts | 123° |
| 2026-05-06 17:07 | -3.41653 | 54.07329 | 36892 ft | 459 kts | 123° |
| 2026-05-06 17:07 | -3.45274 | 54.12597 | 36895 ft | 459 kts | 123° |
| 2026-05-06 17:08 | -3.48893 | 54.17865 | 36903 ft | 459 kts | 123° |
| 2026-05-06 17:08 | -3.52514 | 54.23135 | 36897 ft | 460 kts | 123° |
| 2026-05-06 17:09 | -3.56155 | 54.28436 | 36241 ft | 467 kts | 123° |
| 2026-05-06 17:09 | -3.57999 | 54.31121 | 35724 ft | 464 kts | 123° |
| 2026-05-06 17:09 | -3.59818 | 54.33768 | 35013 ft | 465 kts | 123° |
| 2026-05-06 17:09 | -3.61662 | 54.36454 | 34414 ft | 466 kts | 123° |
| 2026-05-06 17:10 | -3.63494 | 54.39123 | 33495 ft | 471 kts | 123° |
| 2026-05-06 17:10 | -3.65349 | 54.41824 | 33054 ft | 466 kts | 123° |
| 2026-05-06 17:10 | -3.67202 | 54.44523 | 31978 ft | 475 kts | 123° |
| 2026-05-06 17:10 | -3.69051 | 54.47216 | 31381 ft | 469 kts | 124° |
| 2026-05-06 17:11 | -3.70920 | 54.49939 | 30679 ft | 472 kts | 124° |
| 2026-05-06 17:11 | -3.72784 | 54.52655 | 29824 ft | 476 kts | 124° |
| 2026-05-06 17:11 | -3.74635 | 54.55352 | 29396 ft | 467 kts | 124° |
| 2026-05-06 17:11 | -3.76479 | 54.58039 | 28744 ft | 464 kts | 124° |
| 2026-05-06 17:12 | -3.78296 | 54.60687 | 28028 ft | 463 kts | 124° |
| 2026-05-06 17:12 | -3.80100 | 54.63316 | 27740 ft | 452 kts | 124° |
| 2026-05-06 17:12 | -3.81893 | 54.65928 | 27002 ft | 453 kts | 124° |
| 2026-05-06 17:12 | -3.83657 | 54.68500 | 26372 ft | 451 kts | 124° |
| 2026-05-06 17:13 | -3.85420 | 54.71071 | 26062 ft | 442 kts | 125° |
| 2026-05-06 17:13 | -3.87170 | 54.73622 | 25354 ft | 444 kts | 125° |
| 2026-05-06 17:13 | -3.88904 | 54.76151 | 24776 ft | 442 kts | 125° |
| 2026-05-06 17:13 | -3.90636 | 54.78676 | 24347 ft | 437 kts | 125° |
| 2026-05-06 17:14 | -3.92362 | 54.81193 | 23736 ft | 438 kts | 125° |
| 2026-05-06 17:14 | -3.94077 | 54.83694 | 23136 ft | 436 kts | 125° |
| 2026-05-06 17:14 | -3.95787 | 54.86189 | 22577 ft | 432 kts | 125° |
| 2026-05-06 17:14 | -3.97484 | 54.88665 | 22034 ft | 429 kts | 125° |
| 2026-05-06 17:15 | -3.99146 | 54.91089 | 21496 ft | 416 kts | 125° |
| 2026-05-06 17:15 | -4.00762 | 54.93448 | 20965 ft | 405 kts | 125° |
| 2026-05-06 17:15 | -4.02335 | 54.95743 | 20466 ft | 395 kts | 125° |
| 2026-05-06 17:15 | -4.03872 | 54.97987 | 19977 ft | 386 kts | 125° |
| 2026-05-06 17:16 | -4.05379 | 55.00185 | 19485 ft | 379 kts | 125° |
| 2026-05-06 17:16 | -4.06854 | 55.02339 | 19011 ft | 372 kts | 125° |
| 2026-05-06 17:16 | -4.08319 | 55.04475 | 18531 ft | 375 kts | 125° |
| 2026-05-06 17:16 | -4.09824 | 55.06671 | 18037 ft | 389 kts | 125° |
| 2026-05-06 17:17 | -4.11362 | 55.08917 | 17471 ft | 388 kts | 125° |
| 2026-05-06 17:17 | -4.12867 | 55.11114 | 16982 ft | 377 kts | 125° |
| 2026-05-06 17:17 | -4.14325 | 55.13244 | 16484 ft | 366 kts | 125° |
| 2026-05-06 17:17 | -4.15740 | 55.15311 | 16035 ft | 357 kts | 125° |
| 2026-05-06 17:18 | -4.17153 | 55.17374 | 15581 ft | 351 kts | 125° |
| 2026-05-06 17:18 | -4.18522 | 55.19374 | 15134 ft | 349 kts | 125° |
| 2026-05-06 17:18 | -4.19910 | 55.21400 | 14701 ft | 363 kts | 125° |
| 2026-05-06 17:18 | -4.21358 | 55.23515 | 14203 ft | 371 kts | 125° |
| 2026-05-06 17:19 | -4.22805 | 55.25628 | 13734 ft | 363 kts | 125° |
| 2026-05-06 17:19 | -4.24272 | 55.27635 | 13182 ft | 353 kts | 133° |
| 2026-05-06 17:19 | -4.26217 | 55.29079 | 12789 ft | 338 kts | 151° |
| 2026-05-06 17:19 | -4.28208 | 55.30279 | 12229 ft | 336 kts | 147° |
| 2026-05-06 17:20 | -4.30117 | 55.31557 | 11908 ft | 328 kts | 146° |
| 2026-05-06 17:20 | -4.32016 | 55.32858 | 11461 ft | 333 kts | 146° |
| 2026-05-06 17:20 | -4.33971 | 55.34196 | 11039 ft | 349 kts | 146° |
| 2026-05-06 17:20 | -4.35977 | 55.35562 | 10780 ft | 343 kts | 146° |
| 2026-05-06 17:21 | -4.37899 | 55.36864 | 10692 ft | 327 kts | 146° |
| 2026-05-06 17:21 | -4.39759 | 55.38120 | 10551 ft | 318 kts | 146° |
| 2026-05-06 17:21 | -4.41564 | 55.39336 | 10431 ft | 308 kts | 147° |
| 2026-05-06 17:21 | -4.43317 | 55.40515 | 10301 ft | 299 kts | 147° |
| 2026-05-06 17:22 | -4.45023 | 55.41662 | 10179 ft | 291 kts | 147° |
| 2026-05-06 17:22 | -4.46680 | 55.42777 | 10058 ft | 283 kts | 147° |
| 2026-05-06 17:22 | -4.48295 | 55.43863 | 9848 ft | 279 kts | 147° |
| 2026-05-06 17:22 | -4.49907 | 55.44947 | 9556 ft | 278 kts | 147° |
| 2026-05-06 17:23 | -4.51510 | 55.46025 | 9259 ft | 277 kts | 147° |
| 2026-05-06 17:23 | -4.53069 | 55.47149 | 8953 ft | 277 kts | 136° |
| 2026-05-06 17:23 | -4.54194 | 55.48704 | 8732 ft | 274 kts | 121° |
| 2026-05-06 17:23 | -4.55186 | 55.50351 | 8369 ft | 278 kts | 122° |
| 2026-05-06 17:24 | -4.56213 | 55.51987 | 8115 ft | 276 kts | 123° |
| 2026-05-06 17:24 | -4.57244 | 55.53613 | 7821 ft | 276 kts | 123° |
| 2026-05-06 17:24 | -4.58272 | 55.55229 | 7538 ft | 274 kts | 123° |
| 2026-05-06 17:24 | -4.59300 | 55.56844 | 7251 ft | 274 kts | 123° |
| 2026-05-06 17:25 | -4.60324 | 55.58452 | 6960 ft | 273 kts | 123° |
| 2026-05-06 17:25 | -4.61344 | 55.60054 | 6674 ft | 273 kts | 123° |
| 2026-05-06 17:25 | -4.62367 | 55.61661 | 6388 ft | 272 kts | 123° |
| 2026-05-06 17:25 | -4.63385 | 55.63259 | 6094 ft | 272 kts | 122° |
| 2026-05-06 17:26 | -4.64401 | 55.64855 | 5793 ft | 271 kts | 122° |
| 2026-05-06 17:26 | -4.65416 | 55.66448 | 5499 ft | 271 kts | 122° |
| 2026-05-06 17:26 | -4.66418 | 55.68022 | 5198 ft | 264 kts | 122° |
| 2026-05-06 17:26 | -4.67404 | 55.69563 | 4754 ft | 263 kts | 124° |
| 2026-05-06 17:27 | -4.68679 | 55.70789 | 4598 ft | 250 kts | 152° |
| 2026-05-06 17:27 | -4.70298 | 55.71178 | 4467 ft | 233 kts | 179° |
| 2026-05-06 17:27 | -4.71872 | 55.70900 | 4123 ft | 226 kts | 200° |
| 2026-05-06 17:27 | -4.73209 | 55.70177 | 3897 ft | 213 kts | 213° |
| 2026-05-06 17:28 | -4.74394 | 55.69363 | 3651 ft | 201 kts | 214° |
| 2026-05-06 17:28 | -4.75516 | 55.68581 | 3399 ft | 191 kts | 214° |
| 2026-05-06 17:28 | -4.76482 | 55.67703 | 3040 ft | 190 kts | 240° |
| 2026-05-06 17:28 | -4.76605 | 55.66477 | 2931 ft | 178 kts | 290° |
| 2026-05-06 17:29 | -4.76064 | 55.65319 | 2719 ft | 185 kts | 294° |
| 2026-05-06 17:29 | -4.75571 | 55.64193 | 2481 ft | 170 kts | 297° |
| 2026-05-06 17:29 | -4.75032 | 55.63195 | 2302 ft | 162 kts | 301° |
| 2026-05-06 17:29 | -4.74426 | 55.62250 | 2069 ft | 159 kts | 304° |
| 2026-05-06 17:30 | -4.73808 | 55.61347 | 1857 ft | 155 kts | 305° |
| 2026-05-06 17:30 | -4.73191 | 55.60457 | 1662 ft | 155 kts | 305° |
| 2026-05-06 17:30 | -4.72571 | 55.59567 | 1461 ft | 156 kts | 305° |
| 2026-05-06 17:30 | -4.71949 | 55.58673 | 1270 ft | 156 kts | 305° |
| 2026-05-06 17:31 | -4.71332 | 55.57783 | 1053 ft | 154 kts | 306° |
| 2026-05-06 17:31 | -4.70717 | 55.56901 | 869 ft | 155 kts | 305° |
| 2026-05-06 17:31 | -4.70102 | 55.56017 | 693 ft | 154 kts | 305° |
| 2026-05-06 17:31 | -4.69491 | 55.55136 | 488 ft | 153 kts | 304° |
| 2026-05-06 17:32 | -4.68888 | 55.54269 | 294 ft | 151 kts | 305° |
| 2026-05-06 17:32 | -4.68296 | 55.53423 | 85 ft | 141 kts | 305° |
| 2026-05-06 17:32 | -4.67785 | 55.52690 | 19 ft | 113 kts | 305° |
| 2026-05-06 17:32 | -4.67608 | 55.52437 | 21 ft | 14 kts | 299° |
| 2026-05-06 17:33 | -4.67621 | 55.52339 | 22 ft | 15 kts | 244° |
| 2026-05-06 17:33 | -4.67627 | 55.52325 | 24 ft | 0 kts | 243° |